map of MLS home
MLS - Airport
Location
City:  Miles City, Montana, United States
Name:Frank Wiley Field
ICAO:KMLS
IATA:MLS
FAA LID:MLS

Details
Type:Airport (Airfield)
Use:Public/Civil
Latitude:4625'41"N (46.427972)
Longitude:10553'10"W (-105.886221)
Datum:WGS 1984
Elevation:2630 ft (802 m)
Variation:9.27E (WMM2015v2 magnetic declination)
-0.09 annual change
Runways:2
Longest:5680 × 75 ft (1731 × 23 m), paved

Time
Time Zone:UTC-7 (DST-6)
Local Time:

Weather
METAR:KMLS 041353Z AUTO 33004KT 10SM CLR M23/M26 A3010 RMK AO2 SLP266 T12331261
TAF:KMLS 041120Z 0412/0512 01008KT P6SM -SN FEW012 BKN035 OVC120

Related Locations
Nearby:
Farthest:RRG: 10494 mi / 16889 km
Plaine Corail [Sir Gatan Duval Airport (Plaine Corail Airport)], Rodrigues Island, MU

Find:

   beyond  
but within

Other Information
Maps:
NOTAMs:
Links:
Sources:

  
  • flag of United States
  • flag of Montana
  

Airport Diagram

Airport diagram for MLS

Airport diagram PDF from FAA

Sectional Chart

Flight Planning
at skyvector.com

Satellite Image

Google Maps Satellite view

 

Copyright © 2004-2019 Karl L. Swartz. All rights reserved.
The Great Circle Mapper name and logo are trademarks of the Great Circle Mapper.
All other trademarks mentioned herein belong to their respective owners.
Please see credits for attibutions and further copyright information.

  Follow gcmap on Facebook Follow gcmap on Twitter GCmap on LinkedIn

hCard Microformat

Geo Microformat